createdAt,value
2018-09-10T00:01:47.776Z,77.20
2018-09-10T00:04:20.149Z,77.50
2018-09-10T00:06:51.493Z,77.30
2018-09-10T00:09:22.845Z,77.60
2018-09-10T00:11:54.090Z,77.70
2018-09-10T00:14:25.365Z,76.90
2018-09-10T00:16:56.626Z,77.10
2018-09-10T00:19:27.993Z,76.90
2018-09-10T00:21:59.246Z,76.80
2018-09-10T00:24:30.652Z,77.50
2018-09-10T00:27:01.973Z,77.20
2018-09-10T00:29:33.295Z,76.90
2018-09-10T00:32:04.658Z,76.80
2018-09-10T00:34:35.906Z,77.60
2018-09-10T00:37:07.177Z,76.90
2018-09-10T00:39:38.514Z,77.30
2018-09-10T00:42:09.766Z,77.30
2018-09-10T00:44:41.121Z,77.60
2018-09-10T00:47:12.462Z,77.50
2018-09-10T00:49:43.741Z,76.90
2018-09-10T00:52:15.001Z,77.10
2018-09-10T00:54:46.305Z,77.50
2018-09-10T00:57:17.634Z,78.10
2018-09-10T00:59:49.923Z,78.10
2018-09-10T01:02:21.234Z,78.10
2018-09-10T01:04:52.526Z,78.80
2018-09-10T01:07:23.842Z,78.70
2018-09-10T01:09:55.126Z,78.20
2018-09-10T01:12:26.393Z,78.60
2018-09-10T01:14:57.674Z,79.00
2018-09-10T01:17:29.042Z,78.50
2018-09-10T01:20:00.322Z,78.50
2018-09-10T01:22:31.583Z,78.90
2018-09-10T01:25:02.870Z,78.50
2018-09-10T01:27:34.117Z,78.70
2018-09-10T01:30:05.510Z,80.10
2018-09-10T01:32:36.765Z,78.50
2018-09-10T01:35:08.051Z,78.60
2018-09-10T01:37:39.306Z,77.30
2018-09-10T01:40:10.677Z,77.30
2018-09-10T01:42:41.937Z,78.20
2018-09-10T01:45:13.198Z,77.60
2018-09-10T01:47:44.451Z,77.80
2018-09-10T01:50:15.749Z,78.50
2018-09-10T01:52:47.012Z,78.70
2018-09-10T01:55:18.279Z,79.10
2018-09-10T01:57:49.551Z,79.00
2018-09-10T02:00:20.839Z,79.50
2018-09-10T02:02:52.200Z,79.50
2018-09-10T02:05:23.469Z,80.10
2018-09-10T02:07:54.747Z,79.50
2018-09-10T02:10:26.017Z,79.20
2018-09-10T02:12:57.364Z,78.90
2018-09-10T02:15:28.669Z,79.70
2018-09-10T02:17:59.937Z,79.70
2018-09-10T02:20:31.190Z,79.50
2018-09-10T02:23:02.453Z,79.20
2018-09-10T02:25:33.819Z,78.90
2018-09-10T02:28:05.073Z,79.00
2018-09-10T02:30:36.356Z,79.60
2018-09-10T02:33:07.982Z,79.10
2018-09-10T02:35:39.279Z,79.00
2018-09-10T02:38:10.539Z,78.00
2018-09-10T02:40:41.808Z,78.60
2018-09-10T02:43:13.061Z,78.80
2018-09-10T02:45:44.346Z,78.60
2018-09-10T02:48:15.805Z,79.30
2018-09-10T02:50:47.075Z,78.90
2018-09-10T02:53:18.338Z,79.40
2018-09-10T02:55:49.640Z,79.60
2018-09-10T02:58:20.917Z,79.40
2018-09-10T03:00:52.199Z,79.30
2018-09-10T03:03:23.454Z,80.20
2018-09-10T03:05:54.735Z,79.30
2018-09-10T03:08:26.053Z,78.60
2018-09-10T03:10:57.332Z,78.60
2018-09-10T03:13:28.606Z,79.10
2018-09-10T03:15:59.997Z,79.10
2018-09-10T03:18:31.268Z,79.10
2018-09-10T03:21:02.531Z,79.30
2018-09-10T03:23:33.797Z,79.90
2018-09-10T03:26:05.085Z,80.20
2018-09-10T03:28:36.342Z,80.40
2018-09-10T03:31:07.621Z,80.70
2018-09-10T03:33:38.984Z,79.90
2018-09-10T03:36:10.165Z,80.10
2018-09-10T03:38:41.422Z,79.80
2018-09-10T03:41:12.740Z,79.20
2018-09-10T03:43:44.012Z,80.00
2018-09-10T03:46:15.324Z,79.60
2018-09-10T03:48:46.583Z,79.10
2018-09-10T03:51:17.858Z,79.70
2018-09-10T03:53:49.105Z,79.80
2018-09-10T03:56:20.417Z,79.70
2018-09-10T03:58:51.693Z,79.70
2018-09-10T04:01:22.962Z,79.70
2018-09-10T04:03:54.259Z,80.20
2018-09-10T04:06:25.533Z,80.10
2018-09-10T04:08:56.798Z,80.50
2018-09-10T04:11:28.071Z,79.70
2018-09-10T04:13:59.325Z,80.30
2018-09-10T04:16:30.625Z,79.90
2018-09-10T04:19:01.938Z,80.20
2018-09-10T04:21:33.251Z,79.80
2018-09-10T04:24:04.517Z,79.60
2018-09-10T04:26:35.830Z,80.20
2018-09-10T04:29:07.078Z,81.10
2018-09-10T04:31:38.378Z,79.90
2018-09-10T04:34:09.708Z,80.20
2018-09-10T04:36:40.987Z,80.80
2018-09-10T04:39:12.253Z,81.00
2018-09-10T04:41:43.539Z,80.70
2018-09-10T04:44:14.897Z,80.80
2018-09-10T04:46:46.174Z,79.50
2018-09-10T04:49:17.435Z,80.20
2018-09-10T04:51:48.714Z,79.10
2018-09-10T04:54:19.961Z,79.00
2018-09-10T04:56:51.245Z,79.40
2018-09-10T04:59:22.525Z,79.20
2018-09-10T05:01:53.791Z,79.20
2018-09-10T05:04:25.128Z,78.90
2018-09-10T05:06:56.437Z,79.50
2018-09-10T05:09:27.685Z,80.10
2018-09-10T05:11:58.972Z,80.10
2018-09-10T05:14:30.229Z,80.30
2018-09-10T05:17:02.168Z,80.40
2018-09-10T05:19:34.021Z,80.20
2018-09-10T05:22:05.825Z,80.30
2018-09-10T05:24:37.023Z,80.60
2018-09-10T05:27:08.329Z,80.80
2018-09-10T05:29:39.713Z,80.60
2018-09-10T05:32:11.000Z,80.80
2018-09-10T05:34:42.285Z,81.10
2018-09-10T05:37:13.558Z,80.60
2018-09-10T05:39:44.825Z,80.70
2018-09-10T05:42:16.105Z,80.80
2018-09-10T05:44:47.369Z,80.10
2018-09-10T05:47:18.655Z,80.10
2018-09-10T05:49:49.929Z,80.40
2018-09-10T05:52:21.210Z,80.70
2018-09-10T05:54:52.478Z,80.30
2018-09-10T05:57:23.819Z,80.40
2018-09-10T05:59:55.108Z,80.10
2018-09-10T06:02:26.393Z,80.40
2018-09-10T06:04:57.725Z,80.00
2018-09-10T06:07:29.001Z,79.70
2018-09-10T06:10:00.278Z,80.10
2018-09-10T06:12:31.551Z,80.20
2018-09-10T06:15:02.809Z,80.60
2018-09-10T06:17:34.087Z,79.80
2018-09-10T06:20:05.354Z,78.90
2018-09-10T06:22:36.627Z,79.20
2018-09-10T06:25:07.905Z,79.60
2018-09-10T06:27:39.203Z,79.20
2018-09-10T06:30:10.510Z,79.20
2018-09-10T06:32:41.797Z,78.20
2018-09-10T06:35:13.071Z,78.10
2018-09-10T06:37:44.350Z,78.30
2018-09-10T06:40:15.601Z,79.00
2018-09-10T06:42:46.878Z,79.20
2018-09-10T06:45:18.178Z,79.70
2018-09-10T06:47:49.601Z,79.70
2018-09-10T06:50:20.835Z,79.10
2018-09-10T06:52:52.143Z,78.50
2018-09-10T06:55:23.405Z,78.30
2018-09-10T06:57:54.688Z,77.70
2018-09-10T07:00:25.980Z,77.40
2018-09-10T07:02:57.237Z,77.40
2018-09-10T07:05:28.580Z,76.40
2018-09-10T07:08:00.114Z,77.10
2018-09-10T07:10:31.378Z,76.80
2018-09-10T07:13:02.709Z,76.20
2018-09-10T07:15:33.981Z,75.20
2018-09-10T07:18:05.276Z,74.40
2018-09-10T07:20:36.537Z,74.00
2018-09-10T07:23:07.851Z,73.40
2018-09-10T07:25:39.139Z,73.40
2018-09-10T07:28:10.405Z,73.20
2018-09-10T07:30:41.754Z,72.30
2018-09-10T07:33:13.061Z,71.40
2018-09-10T07:35:44.318Z,71.50
2018-09-10T07:38:15.585Z,68.90
2018-09-10T07:40:47.041Z,68.80
2018-09-10T07:43:18.324Z,67.90
2018-09-10T07:45:49.698Z,67.40
2018-09-10T07:48:21.005Z,66.60
2018-09-10T07:50:52.333Z,65.80
2018-09-10T07:53:23.611Z,65.60
2018-09-10T07:55:54.886Z,64.50
2018-09-10T07:58:26.154Z,62.80
2018-09-10T08:00:57.405Z,63.10
2018-09-10T08:03:28.777Z,61.90
2018-09-10T08:06:00.055Z,61.00
2018-09-10T08:08:31.369Z,61.40
2018-09-10T08:11:02.709Z,59.60
2018-09-10T08:13:33.981Z,58.40
2018-09-10T08:16:05.243Z,58.10
2018-09-10T08:18:36.698Z,57.50
2018-09-10T08:21:07.999Z,58.90
2018-09-10T08:23:39.359Z,57.70
2018-09-10T08:26:10.678Z,56.90
2018-09-10T08:28:42.054Z,56.70
2018-09-10T08:31:13.326Z,61.50
2018-09-10T08:33:44.610Z,56.30
2018-09-10T08:36:15.874Z,68.20
2018-09-10T08:38:47.230Z,55.40
2018-09-10T08:41:18.477Z,55.60
2018-09-10T08:43:49.745Z,55.30
2018-09-10T08:46:21.004Z,55.10
2018-09-10T08:48:52.304Z,62.40
2018-09-10T08:51:23.658Z,55.50
2018-09-10T08:53:55.011Z,54.50
2018-09-10T08:56:26.309Z,54.20
2018-09-10T08:58:57.563Z,54.00
2018-09-10T09:01:29.086Z,53.30
2018-09-10T09:11:35.790Z,49.80
2018-09-10T09:14:07.085Z,49.60
2018-09-10T09:16:38.357Z,48.80
2018-09-10T09:19:09.745Z,50.00
2018-09-10T09:21:41.036Z,50.00
2018-09-10T09:24:12.344Z,49.50
2018-09-10T09:26:43.605Z,49.70
2018-09-10T09:29:14.885Z,48.60
2018-09-10T09:31:46.173Z,48.10
2018-09-10T09:34:17.514Z,48.10
2018-09-10T09:36:54.646Z,46.90
2018-09-10T09:39:31.798Z,46.70
2018-09-10T09:42:08.930Z,46.20
2018-09-10T09:44:46.032Z,45.90
2018-09-10T09:47:17.419Z,45.00
2018-09-10T09:49:48.869Z,44.70
2018-09-10T09:52:20.184Z,43.90
2018-09-10T09:54:51.560Z,41.60
2018-09-10T09:57:23.008Z,44.20
2018-09-10T09:59:54.345Z,43.90
2018-09-10T10:02:31.142Z,40.60
2018-09-10T10:05:02.457Z,42.00
2018-09-10T10:07:33.717Z,41.40
2018-09-10T10:10:05.087Z,42.00
2018-09-10T10:12:36.318Z,41.80
2018-09-10T10:15:07.659Z,40.70
2018-09-10T10:17:38.930Z,39.70
2018-09-10T10:20:10.203Z,37.90
2018-09-10T10:22:41.479Z,37.40
2018-09-10T10:25:12.859Z,37.20
2018-09-10T10:27:44.198Z,36.90
2018-09-10T10:30:15.471Z,39.40
2018-09-10T10:32:46.790Z,36.20
2018-09-10T10:35:18.117Z,35.60
2018-09-10T10:37:49.386Z,35.70
2018-09-10T10:40:20.758Z,36.60
2018-09-10T10:42:52.028Z,40.20
2018-09-10T10:45:23.318Z,39.50
2018-09-10T10:47:54.590Z,37.10
2018-09-10T10:50:25.903Z,35.60
2018-09-10T10:52:57.275Z,37.00
2018-09-10T10:55:28.569Z,35.70
2018-09-10T10:57:59.815Z,36.20
2018-09-10T11:00:31.103Z,36.80
2018-09-10T11:03:02.388Z,35.90
2018-09-10T11:05:33.659Z,36.30
2018-09-10T11:08:04.921Z,32.20
2018-09-10T11:10:36.192Z,34.60
2018-09-10T11:13:07.762Z,33.90
2018-09-10T11:15:39.027Z,33.80
2018-09-10T11:18:10.291Z,34.10
2018-09-10T11:20:41.551Z,30.20
2018-09-10T11:23:12.800Z,32.40
2018-09-10T11:25:44.085Z,32.00
2018-09-10T11:28:15.350Z,32.50
2018-09-10T11:30:46.642Z,32.60
2018-09-10T11:33:17.889Z,34.80
2018-09-10T11:35:49.182Z,32.20
2018-09-10T11:38:20.540Z,35.70
2018-09-10T11:40:51.818Z,34.10
2018-09-10T11:43:23.117Z,35.20
2018-09-10T11:45:54.470Z,31.70
2018-09-10T11:48:25.727Z,30.50
2018-09-10T11:50:57.006Z,30.00
2018-09-10T11:53:28.263Z,28.20
2018-09-10T11:55:59.546Z,30.00
2018-09-10T11:58:30.865Z,30.20
2018-09-10T12:01:02.144Z,32.50
2018-09-10T12:03:33.504Z,33.20
2018-09-10T12:06:04.782Z,31.90
2018-09-10T12:08:36.045Z,31.50
2018-09-10T12:11:07.328Z,33.50
2018-09-10T12:13:38.630Z,32.40
2018-09-10T12:16:09.930Z,32.30
2018-09-10T12:18:41.186Z,32.20
2018-09-10T12:21:12.482Z,33.00
2018-09-10T12:23:43.771Z,33.40
2018-09-10T12:26:15.058Z,32.40
2018-09-10T12:28:46.441Z,32.50
2018-09-10T12:31:17.838Z,31.60
2018-09-10T12:33:49.189Z,31.80
2018-09-10T12:36:20.586Z,32.20
2018-09-10T12:38:51.971Z,33.30
2018-09-10T12:41:23.392Z,33.00
2018-09-10T12:43:54.690Z,34.30
2018-09-10T12:46:26.080Z,32.70
2018-09-10T12:48:57.387Z,35.60
2018-09-10T12:51:28.814Z,34.80
2018-09-10T12:54:00.161Z,34.60
2018-09-10T12:56:31.571Z,35.30
2018-09-10T12:59:02.945Z,34.50
2018-09-10T13:01:34.375Z,35.50
2018-09-10T13:04:05.808Z,34.80
2018-09-10T13:06:37.134Z,34.10
2018-09-10T13:09:08.499Z,32.90
2018-09-10T13:11:39.908Z,33.70
2018-09-10T13:14:11.273Z,33.10
2018-09-10T13:16:42.685Z,33.30
2018-09-10T13:19:14.216Z,33.30
2018-09-10T13:21:45.704Z,34.60
2018-09-10T13:24:17.095Z,35.20
2018-09-10T13:26:48.614Z,34.50
2018-09-10T13:29:19.947Z,34.80
2018-09-10T13:31:51.892Z,35.30
2018-09-10T13:34:23.291Z,35.60
2018-09-10T13:36:54.700Z,33.50
2018-09-10T13:39:26.111Z,35.00
2018-09-10T13:41:57.508Z,34.00
2018-09-10T13:44:28.914Z,34.10
2018-09-10T13:47:00.299Z,34.30
2018-09-10T13:49:31.749Z,33.80
2018-09-10T13:52:03.169Z,34.30
2018-09-10T13:54:34.567Z,33.40
2018-09-10T13:57:05.974Z,33.30
2018-09-10T13:59:37.421Z,42.50
2018-09-10T14:02:08.790Z,42.10
2018-09-10T14:04:40.177Z,37.40
2018-09-10T14:07:11.608Z,38.10
2018-09-10T14:09:42.989Z,37.10
2018-09-10T14:12:14.422Z,38.40
2018-09-10T14:14:45.849Z,36.40
2018-09-10T14:17:17.252Z,34.80
2018-09-10T14:19:48.649Z,35.70
2018-09-10T14:22:20.116Z,35.00
2018-09-10T14:24:51.551Z,35.80
2018-09-10T14:27:22.942Z,35.00
2018-09-10T14:29:54.268Z,35.70
2018-09-10T14:32:25.651Z,34.90
2018-09-10T14:34:57.105Z,34.10
2018-09-10T14:37:28.507Z,34.60
2018-09-10T14:39:59.882Z,33.70
2018-09-10T14:42:31.245Z,34.10
2018-09-10T14:45:02.591Z,34.80
2018-09-10T14:47:34.004Z,34.30
2018-09-10T14:50:05.359Z,33.70
2018-09-10T14:52:36.806Z,35.30
2018-09-10T14:55:08.197Z,34.70
2018-09-10T14:57:39.622Z,34.60
2018-09-10T15:00:16.566Z,35.30
2018-09-10T15:02:47.947Z,33.50
2018-09-10T15:05:19.561Z,34.60
2018-09-10T15:07:51.911Z,34.20
2018-09-10T15:10:23.266Z,34.70
2018-09-10T15:12:54.586Z,34.80
2018-09-10T15:15:25.955Z,34.80
2018-09-10T15:17:57.351Z,34.90
2018-09-10T15:20:28.776Z,35.50
2018-09-10T15:23:00.249Z,37.10
2018-09-10T15:25:31.611Z,36.70
2018-09-10T15:28:02.927Z,36.50
2018-09-10T15:30:34.226Z,36.10
2018-09-10T15:33:05.572Z,36.20
2018-09-10T15:35:36.964Z,35.30
2018-09-10T15:38:08.393Z,36.10
2018-09-10T15:40:39.840Z,36.00
2018-09-10T15:43:11.196Z,37.10
2018-09-10T15:45:42.604Z,37.20
2018-09-10T15:48:14.043Z,37.80
2018-09-10T15:50:45.388Z,37.50
2018-09-10T15:53:16.813Z,36.70
2018-09-10T15:55:48.212Z,36.50
2018-09-10T15:58:19.571Z,37.40
2018-09-10T16:00:50.958Z,37.10
2018-09-10T16:03:22.304Z,37.40
2018-09-10T16:05:53.582Z,36.60
2018-09-10T16:08:24.868Z,37.10
2018-09-10T16:10:56.201Z,39.20
2018-09-10T16:13:27.478Z,37.30
2018-09-10T16:15:58.738Z,37.10
2018-09-10T16:18:30.073Z,37.00
2018-09-10T16:21:01.337Z,37.70
2018-09-10T16:23:32.728Z,37.50
2018-09-10T16:26:04.055Z,39.00
2018-09-10T16:28:35.420Z,38.00
2018-09-10T16:31:06.681Z,39.00
2018-09-10T16:33:37.968Z,39.70
2018-09-10T16:36:09.250Z,39.80
2018-09-10T16:38:40.639Z,42.40
2018-09-10T16:41:12.014Z,41.50
2018-09-10T16:43:43.222Z,42.90
2018-09-10T16:46:14.541Z,46.60
2018-09-10T16:48:45.988Z,47.80
2018-09-10T16:51:17.165Z,49.70
2018-09-10T16:53:48.484Z,49.70
2018-09-10T16:56:19.879Z,50.10
2018-09-10T16:58:51.211Z,51.20
2018-09-10T17:01:22.523Z,51.60
2018-09-10T17:03:53.819Z,52.60
2018-09-10T17:06:25.082Z,53.50
2018-09-10T17:08:56.404Z,54.10
2018-09-10T17:11:27.725Z,53.60
2018-09-10T17:13:59.077Z,53.10
2018-09-10T17:16:30.341Z,53.30
2018-09-10T17:19:01.648Z,53.60
2018-09-10T17:21:32.940Z,54.00
2018-09-10T17:24:04.310Z,54.40
2018-09-10T17:26:35.621Z,55.30
2018-09-10T17:29:06.972Z,55.80
2018-09-10T17:31:38.262Z,54.30
2018-09-10T17:34:09.616Z,54.80
2018-09-10T17:36:40.897Z,55.10
2018-09-10T17:39:12.289Z,56.30
2018-09-10T17:41:43.602Z,56.70
2018-09-10T17:44:14.976Z,55.20
2018-09-10T17:46:46.323Z,55.90
2018-09-10T17:49:17.669Z,56.00
2018-09-10T17:51:48.926Z,57.20
2018-09-10T17:54:20.251Z,56.20
2018-09-10T17:56:51.582Z,56.60
2018-09-10T17:59:22.938Z,57.50
2018-09-10T18:01:54.211Z,58.20
2018-09-10T18:04:25.604Z,58.30
2018-09-10T18:06:57.000Z,59.30
2018-09-10T18:09:28.460Z,58.20
2018-09-10T18:11:59.851Z,57.70
2018-09-10T18:14:31.250Z,58.00
2018-09-10T18:17:02.635Z,59.40
2018-09-10T18:19:34.067Z,59.10
2018-09-10T18:22:05.498Z,60.00
2018-09-10T18:24:36.935Z,60.70
2018-09-10T18:27:08.291Z,60.60
2018-09-10T18:29:39.718Z,60.40
2018-09-10T18:32:11.116Z,62.00
2018-09-10T18:34:42.533Z,62.00
2018-09-10T18:37:13.930Z,61.40
2018-09-10T18:39:45.331Z,60.80
2018-09-10T18:42:16.707Z,61.20
2018-09-10T18:44:48.109Z,61.90
2018-09-10T18:47:19.481Z,62.10
2018-09-10T18:49:50.923Z,62.20
2018-09-10T18:52:22.272Z,62.30
2018-09-10T18:54:53.629Z,62.90
2018-09-10T18:57:24.977Z,61.90
2018-09-10T18:59:56.421Z,62.00
2018-09-10T19:02:27.889Z,62.70
2018-09-10T19:04:59.320Z,63.20
2018-09-10T19:07:30.738Z,63.10
2018-09-10T19:10:02.130Z,63.90
2018-09-10T19:12:33.524Z,64.20
2018-09-10T19:15:04.903Z,64.20
2018-09-10T19:17:36.277Z,64.10
2018-09-10T19:20:07.720Z,64.40
2018-09-10T19:22:39.085Z,64.40
2018-09-10T19:25:10.513Z,64.30
2018-09-10T19:27:41.900Z,66.30
2018-09-10T19:30:13.349Z,66.30
2018-09-10T19:32:44.692Z,66.30
2018-09-10T19:35:16.117Z,66.90
2018-09-10T19:37:47.571Z,66.40
2018-09-10T19:40:19.020Z,66.90
2018-09-10T19:42:50.481Z,66.20
2018-09-10T19:45:21.914Z,66.80
2018-09-10T19:47:53.342Z,67.50
2018-09-10T19:50:24.740Z,68.20
2018-09-10T19:52:56.139Z,67.70
2018-09-10T19:55:27.520Z,68.20
2018-09-10T19:57:58.988Z,68.20
2018-09-10T20:00:30.525Z,68.60
2018-09-10T20:03:02.201Z,67.90
2018-09-10T20:05:33.641Z,68.20
2018-09-10T20:08:05.095Z,68.50
2018-09-10T20:10:38.217Z,68.80
2018-09-10T20:13:09.779Z,69.30
2018-09-10T20:15:41.566Z,69.50
2018-09-10T20:18:13.052Z,70.10
2018-09-10T20:20:44.487Z,70.00
2018-09-10T20:23:15.963Z,70.60
2018-09-10T20:25:47.716Z,70.00
2018-09-10T20:28:19.577Z,69.90
2018-09-10T20:30:51.551Z,70.40
2018-09-10T20:33:23.057Z,71.10
2018-09-10T20:35:54.491Z,70.40
2018-09-10T20:38:26.028Z,70.80
2018-09-10T20:40:57.638Z,70.40
2018-09-10T20:43:29.033Z,70.80
2018-09-10T20:46:00.648Z,71.00
2018-09-10T20:48:32.027Z,70.90
2018-09-10T20:51:03.353Z,71.40
2018-09-10T20:53:34.659Z,71.60
2018-09-10T20:56:06.115Z,71.10
2018-09-10T20:58:37.496Z,71.40
2018-09-10T21:01:08.962Z,72.10
2018-09-10T21:03:40.798Z,72.40
2018-09-10T21:06:12.343Z,72.30
2018-09-10T21:08:43.691Z,72.40
2018-09-10T21:11:15.459Z,72.60
2018-09-10T21:13:46.844Z,72.10
2018-09-10T21:16:18.218Z,72.30
2018-09-10T21:18:49.561Z,72.50
2018-09-10T21:21:20.963Z,72.50
2018-09-10T21:23:52.311Z,72.50
2018-09-10T21:26:23.747Z,72.80
2018-09-10T21:28:55.013Z,73.10
2018-09-10T21:31:26.275Z,72.50
2018-09-10T21:33:57.589Z,72.10
2018-09-10T21:36:28.951Z,72.20
2018-09-10T21:39:00.289Z,73.10
2018-09-10T21:41:31.625Z,72.50
2018-09-10T21:44:02.963Z,73.80
2018-09-10T21:46:34.281Z,73.60
2018-09-10T21:49:05.625Z,74.00
2018-09-10T21:51:36.978Z,74.50
2018-09-10T21:54:08.365Z,73.60
2018-09-10T21:56:39.731Z,73.60
2018-09-10T21:59:11.127Z,73.10
2018-09-10T22:01:43.059Z,73.10
2018-09-10T22:04:14.421Z,73.20
2018-09-10T22:06:46.456Z,73.50
2018-09-10T22:09:17.779Z,74.00
2018-09-10T22:11:54.895Z,74.10
2018-09-10T22:14:26.236Z,74.70
2018-09-10T22:16:57.611Z,74.30
2018-09-10T22:19:28.958Z,74.80
2018-09-10T22:22:00.328Z,74.10
2018-09-10T22:24:31.767Z,74.30
2018-09-10T22:27:03.114Z,74.00
2018-09-10T22:29:34.471Z,73.90
2018-09-10T22:32:14.167Z,74.30
2018-09-10T22:34:45.585Z,74.80
2018-09-10T22:37:16.983Z,74.50
2018-09-10T22:39:48.403Z,75.40
2018-09-10T22:42:19.867Z,75.70
2018-09-10T22:44:51.248Z,76.30
2018-09-10T22:47:22.659Z,75.90
2018-09-10T22:49:54.007Z,75.60
2018-09-10T22:52:25.397Z,76.30
2018-09-10T22:54:56.764Z,76.50
2018-09-10T22:57:28.069Z,76.20
2018-09-10T22:59:59.353Z,76.40
2018-09-10T23:02:30.682Z,85.20
2018-09-10T23:05:02.090Z,76.30
2018-09-10T23:07:33.472Z,74.10
2018-09-10T23:10:04.753Z,79.50
2018-09-10T23:12:36.092Z,80.30
2018-09-10T23:15:07.334Z,75.50
2018-09-10T23:17:38.611Z,73.40
2018-09-10T23:20:09.899Z,72.20
2018-09-10T23:22:41.169Z,73.50
2018-09-10T23:25:12.495Z,75.80
2018-09-10T23:27:43.845Z,73.40
2018-09-10T23:30:15.219Z,78.50
2018-09-10T23:32:46.507Z,72.10
2018-09-10T23:35:17.766Z,77.80
2018-09-10T23:37:49.774Z,70.00
2018-09-10T23:40:21.317Z,73.40
2018-09-10T23:42:52.668Z,72.50
2018-09-10T23:45:23.926Z,72.10
2018-09-10T23:47:55.261Z,73.30
2018-09-10T23:50:26.511Z,74.40
2018-09-10T23:52:57.787Z,73.40
2018-09-10T23:55:29.061Z,73.60
2018-09-10T23:58:00.334Z,74.40
